createdAt,value
2023-04-06T00:00:07.744Z,15.63
2023-04-06T00:02:36.233Z,17.15
2023-04-06T00:05:04.984Z,16.90
2023-04-06T00:07:34.371Z,18.05
2023-04-06T00:10:03.050Z,19.65
2023-04-06T00:12:34.112Z,17.82
2023-04-06T00:15:02.593Z,16.73
2023-04-06T00:17:30.936Z,17.10
2023-04-06T00:19:59.178Z,16.25
2023-04-06T00:22:27.466Z,16.27
2023-04-06T00:24:55.726Z,20.40
2023-04-06T00:27:23.983Z,18.92
2023-04-06T00:29:52.277Z,21.20
2023-04-06T00:32:20.571Z,17.35
2023-04-06T00:34:48.881Z,16.55
2023-04-06T00:37:17.211Z,15.98
2023-04-06T00:39:45.594Z,14.75
2023-04-06T00:42:14.582Z,16.35
2023-04-06T00:44:43.206Z,17.12
2023-04-06T00:47:11.546Z,15.38
2023-04-06T00:49:39.799Z,16.40
2023-04-06T00:52:08.049Z,20.23
2023-04-06T00:54:36.353Z,19.45
2023-04-06T00:57:04.590Z,18.90
2023-04-06T00:59:33.050Z,18.07
2023-04-06T01:02:01.623Z,18.45
2023-04-06T01:04:29.950Z,17.07
2023-04-06T01:06:58.357Z,16.00
2023-04-06T01:09:27.102Z,19.40
2023-04-06T01:11:56.462Z,15.75
2023-04-06T01:14:27.345Z,16.10
2023-04-06T01:16:56.147Z,20.00
2023-04-06T01:19:24.683Z,16.57
2023-04-06T01:21:56.813Z,17.32
2023-04-06T01:24:25.175Z,15.65
2023-04-06T01:26:53.407Z,17.27
2023-04-06T01:29:21.753Z,19.98
2023-04-06T01:31:50.469Z,17.17
2023-04-06T01:34:18.770Z,16.35
2023-04-06T01:36:47.102Z,17.37
2023-04-06T01:39:15.427Z,18.92
2023-04-06T01:41:43.719Z,17.23
2023-04-06T01:44:12.084Z,15.70
2023-04-06T01:46:40.375Z,16.77
2023-04-06T01:49:08.853Z,19.55
2023-04-06T01:51:37.280Z,17.37
2023-04-06T01:54:05.803Z,17.82
2023-04-06T01:56:34.106Z,15.80
2023-04-06T01:59:02.426Z,17.27
2023-04-06T02:01:30.744Z,16.70
2023-04-06T02:03:59.248Z,19.55
2023-04-06T02:06:27.698Z,17.42
2023-04-06T02:08:56.008Z,18.85
2023-04-06T02:11:24.261Z,15.88
2023-04-06T02:13:52.520Z,15.03
2023-04-06T02:16:20.801Z,16.82
2023-04-06T02:18:49.113Z,17.80
2023-04-06T02:21:19.055Z,16.05
2023-04-06T02:23:48.363Z,22.67
2023-04-06T02:26:16.812Z,15.75
2023-04-06T02:28:45.388Z,16.50
2023-04-06T02:31:15.352Z,21.48
2023-04-06T02:33:43.599Z,19.60
2023-04-06T02:36:11.840Z,19.20
2023-04-06T02:38:40.179Z,17.10
2023-04-06T02:41:08.440Z,17.20
2023-04-06T02:43:36.763Z,19.35
2023-04-06T02:46:05.164Z,18.87
2023-04-06T02:48:35.157Z,18.77
2023-04-06T02:51:03.520Z,22.52
2023-04-06T02:53:31.886Z,15.32
2023-04-06T02:56:00.156Z,20.30
2023-04-06T02:58:28.445Z,21.87
2023-04-06T03:00:56.757Z,21.05
2023-04-06T03:03:25.292Z,17.80
2023-04-06T03:05:55.394Z,21.07
2023-04-06T03:08:23.649Z,16.95
2023-04-06T03:10:52.089Z,14.53
2023-04-06T03:13:20.440Z,15.58
2023-04-06T03:15:57.624Z,16.60
2023-04-06T03:18:26.652Z,14.85
2023-04-06T03:20:55.221Z,14.43
2023-04-06T03:23:23.681Z,16.30
2023-04-06T03:25:51.941Z,15.30
2023-04-06T03:28:20.373Z,16.17
2023-04-06T03:30:48.637Z,16.32
2023-04-06T03:33:19.543Z,17.85
2023-04-06T03:35:47.844Z,16.97
2023-04-06T03:38:16.147Z,16.82
2023-04-06T03:40:44.409Z,15.43
2023-04-06T03:43:12.820Z,14.98
2023-04-06T03:45:41.058Z,16.07
2023-04-06T03:48:09.433Z,18.30
2023-04-06T03:50:37.757Z,16.42
2023-04-06T03:53:06.090Z,14.55
2023-04-06T03:55:34.497Z,14.80
2023-04-06T03:58:03.268Z,14.68
2023-04-06T04:00:33.838Z,12.93
2023-04-06T04:03:03.097Z,16.93
2023-04-06T04:05:31.637Z,14.63
2023-04-06T04:07:59.970Z,16.82
2023-04-06T04:10:31.804Z,14.68
2023-04-06T04:13:00.133Z,15.15
2023-04-06T04:15:28.368Z,13.90
2023-04-06T04:17:56.739Z,13.15
2023-04-06T04:20:25.094Z,14.73
2023-04-06T04:22:53.365Z,15.50
2023-04-06T04:25:21.652Z,17.40
2023-04-06T04:27:49.970Z,14.73
2023-04-06T04:30:18.319Z,16.50
2023-04-06T04:32:46.645Z,15.10
2023-04-06T04:35:15.005Z,16.25
2023-04-06T04:37:43.386Z,19.07
2023-04-06T04:40:11.834Z,15.32
2023-04-06T04:42:40.120Z,18.32
2023-04-06T04:45:08.619Z,13.72
2023-04-06T04:47:36.911Z,17.07
2023-04-06T04:50:05.562Z,16.32
2023-04-06T04:52:33.876Z,16.65
2023-04-06T04:55:02.179Z,15.20
2023-04-06T04:57:30.499Z,12.75
2023-04-06T04:59:58.838Z,13.05
2023-04-06T05:02:27.338Z,12.80
2023-04-06T05:04:56.427Z,12.60
2023-04-06T05:07:24.748Z,18.45
2023-04-06T05:09:53.014Z,14.38
2023-04-06T05:12:21.337Z,13.43
2023-04-06T05:14:49.751Z,14.25
2023-04-06T05:17:18.071Z,16.02
2023-04-06T05:19:46.504Z,15.85
2023-04-06T05:22:16.423Z,16.90
2023-04-06T05:24:45.328Z,15.15
2023-04-06T05:27:13.638Z,15.00
2023-04-06T05:29:42.059Z,14.78
2023-04-06T05:32:11.063Z,16.42
2023-04-06T05:34:39.377Z,20.62
2023-04-06T05:37:07.639Z,17.50
2023-04-06T05:39:37.207Z,15.32
2023-04-06T05:42:07.426Z,15.58
2023-04-06T05:44:38.388Z,15.53
2023-04-06T05:47:06.717Z,14.65
2023-04-06T05:49:35.546Z,14.58
2023-04-06T05:52:04.985Z,17.40
2023-04-06T05:54:33.296Z,14.23
2023-04-06T05:57:03.276Z,14.40
2023-04-06T05:59:32.824Z,14.95
2023-04-06T06:02:02.192Z,14.40
2023-04-06T06:04:30.640Z,17.77
2023-04-06T06:06:58.936Z,14.70
2023-04-06T06:09:27.173Z,10.30
2023-04-06T06:11:57.275Z,11.90
2023-04-06T06:14:25.929Z,12.63
2023-04-06T06:16:54.154Z,10.68
2023-04-06T06:19:23.918Z,12.37
2023-04-06T06:21:52.205Z,9.93
2023-04-06T06:24:20.786Z,11.10
2023-04-06T06:26:49.833Z,12.10
2023-04-06T06:29:18.082Z,10.68
2023-04-06T06:31:46.441Z,9.43
2023-04-06T06:34:14.765Z,10.23
2023-04-06T06:36:44.077Z,11.90
2023-04-06T06:39:13.302Z,10.38
2023-04-06T06:42:03.717Z,11.68
2023-04-06T06:44:33.652Z,11.48
2023-04-06T06:47:01.909Z,15.53
2023-04-06T06:49:30.172Z,12.23
2023-04-06T06:51:58.442Z,11.85
2023-04-06T06:54:26.678Z,11.90
2023-04-06T06:56:55.726Z,12.28
2023-04-06T06:59:24.097Z,11.35
2023-04-06T07:01:52.614Z,12.70
2023-04-06T07:04:21.180Z,10.65
2023-04-06T07:06:49.500Z,13.03
2023-04-06T07:09:17.930Z,10.10
2023-04-06T07:11:46.297Z,11.15
2023-04-06T07:14:14.967Z,9.05
2023-04-06T07:16:45.144Z,13.50
2023-04-06T07:19:13.612Z,12.55
2023-04-06T07:21:42.149Z,10.68
2023-04-06T07:24:10.805Z,10.78
2023-04-06T07:26:39.438Z,10.65
2023-04-06T07:29:07.765Z,14.30
2023-04-06T07:31:36.959Z,14.05
2023-04-06T07:34:05.424Z,13.13
2023-04-06T07:36:34.088Z,14.40
2023-04-06T07:39:02.555Z,12.70
2023-04-06T07:41:30.818Z,14.15
2023-04-06T07:43:59.084Z,34.80
2023-04-06T07:46:27.380Z,10.93
2023-04-06T07:48:55.682Z,11.18
2023-04-06T07:51:24.016Z,10.32
2023-04-06T07:53:53.017Z,11.83
2023-04-06T07:56:21.886Z,10.30
2023-04-06T07:58:51.625Z,9.03
2023-04-06T08:01:22.001Z,11.97
2023-04-06T08:03:51.252Z,7.60
2023-04-06T08:06:21.723Z,10.05
2023-04-06T08:08:49.976Z,10.23
2023-04-06T08:11:19.875Z,12.00
2023-04-06T08:13:48.335Z,17.82
2023-04-06T08:16:18.487Z,13.03
2023-04-06T08:18:47.270Z,12.30
2023-04-06T08:21:15.686Z,12.95
2023-04-06T08:23:46.815Z,15.28
2023-04-06T08:26:15.373Z,17.05
2023-04-06T08:28:46.367Z,14.73
2023-04-06T08:31:13.922Z,14.35
2023-04-06T08:33:42.555Z,16.10
2023-04-06T08:36:12.430Z,15.18
2023-04-06T08:38:41.710Z,13.95
2023-04-06T08:41:13.672Z,14.45
2023-04-06T08:43:43.611Z,12.55
2023-04-06T08:46:16.324Z,18.12
2023-04-06T08:51:15.192Z,13.20
2023-04-06T08:53:43.653Z,16.12
2023-04-06T08:56:12.279Z,16.27
2023-04-06T08:58:41.946Z,15.55
2023-04-06T09:01:13.661Z,15.08
2023-04-06T09:03:42.576Z,10.28
2023-04-06T09:06:13.008Z,14.78
2023-04-06T09:08:42.450Z,12.13
2023-04-06T09:11:10.805Z,14.38
2023-04-06T09:13:52.971Z,11.73
2023-04-06T09:16:21.659Z,17.90
2023-04-06T09:18:50.577Z,17.12
2023-04-06T09:21:22.231Z,17.92
2023-04-06T09:23:52.098Z,15.32
2023-04-06T09:26:22.318Z,14.07
2023-04-06T09:28:51.867Z,16.87
2023-04-06T09:31:24.328Z,18.10
2023-04-06T09:33:53.080Z,17.55
2023-04-06T09:36:21.489Z,18.73
2023-04-06T09:38:59.218Z,18.95
2023-04-06T09:41:28.681Z,20.45
2023-04-06T09:44:04.559Z,18.52
2023-04-06T09:46:46.535Z,21.40
2023-04-06T09:49:07.379Z,20.75
2023-04-06T09:51:38.704Z,21.30
2023-04-06T09:54:08.449Z,21.75
2023-04-06T09:56:41.345Z,15.83
2023-04-06T10:01:38.515Z,20.32
2023-04-06T10:04:09.124Z,16.02
2023-04-06T10:06:38.365Z,21.10
2023-04-06T10:09:09.087Z,18.07
2023-04-06T10:11:37.611Z,16.35
2023-04-06T10:14:05.956Z,18.92
2023-04-06T10:16:34.662Z,15.28
2023-04-06T10:19:10.204Z,19.20
2023-04-06T10:21:40.101Z,16.62
2023-04-06T10:24:11.886Z,17.77
2023-04-06T10:26:40.759Z,18.48
2023-04-06T10:29:09.229Z,16.42
2023-04-06T10:31:39.068Z,22.27
2023-04-06T10:34:07.879Z,20.72
2023-04-06T10:36:37.985Z,20.77
2023-04-06T10:39:07.746Z,17.37
2023-04-06T10:41:46.693Z,20.32
2023-04-06T10:44:25.058Z,19.42
2023-04-06T10:47:02.977Z,18.65
2023-04-06T10:49:31.265Z,17.20
2023-04-06T10:51:59.532Z,18.55
2023-04-06T10:54:28.587Z,19.23
2023-04-06T10:56:57.389Z,22.90
2023-04-06T10:59:26.661Z,19.17
2023-04-06T11:01:56.657Z,24.27
2023-04-06T11:04:25.029Z,19.67
2023-04-06T11:06:53.521Z,20.80
2023-04-06T11:09:25.908Z,19.05
2023-04-06T11:11:54.330Z,20.77
2023-04-06T11:14:22.792Z,21.37
2023-04-06T11:16:52.877Z,17.95
2023-04-06T11:19:21.672Z,19.55
2023-04-06T11:21:50.574Z,17.87
2023-04-06T11:24:22.405Z,22.48
2023-04-06T11:26:58.104Z,18.00
2023-04-06T11:29:32.560Z,17.40
2023-04-06T11:32:17.259Z,17.52
2023-04-06T11:34:47.072Z,17.92
2023-04-06T11:37:15.652Z,16.82
2023-04-06T11:39:45.585Z,20.17
2023-04-06T11:42:13.901Z,22.07
2023-04-06T11:44:45.431Z,17.73
2023-04-06T11:47:14.382Z,18.10
2023-04-06T11:49:45.785Z,19.85
2023-04-06T11:52:15.621Z,19.07
2023-04-06T11:54:43.978Z,17.87
2023-04-06T11:57:12.263Z,17.92
2023-04-06T11:59:40.656Z,18.67
2023-04-06T12:02:09.003Z,19.50
2023-04-06T12:04:37.389Z,20.15
2023-04-06T12:07:05.804Z,21.05
2023-04-06T12:09:35.649Z,18.85
2023-04-06T12:12:04.567Z,19.40
2023-04-06T12:14:33.058Z,20.10
2023-04-06T12:17:01.344Z,18.75
2023-04-06T12:19:32.553Z,15.70
2023-04-06T12:22:01.169Z,14.15
2023-04-06T12:24:30.866Z,15.35
2023-04-06T12:27:06.897Z,14.18
2023-04-06T12:29:29.003Z,15.13
2023-04-06T12:31:58.982Z,16.67
2023-04-06T12:34:27.382Z,20.10
2023-04-06T12:36:56.684Z,15.65
2023-04-06T12:39:26.227Z,15.45
2023-04-06T12:41:54.484Z,14.63
2023-04-06T12:44:23.677Z,11.93
2023-04-06T12:46:53.249Z,13.38
2023-04-06T12:49:22.849Z,11.57
2023-04-06T12:51:51.278Z,11.53
2023-04-06T12:54:19.597Z,13.43
2023-04-06T12:56:47.927Z,14.73
2023-04-06T12:59:17.276Z,12.15
2023-04-06T13:01:45.764Z,13.10
2023-04-06T13:04:14.076Z,11.88
2023-04-06T13:06:42.415Z,13.10
2023-04-06T13:09:10.735Z,12.65
2023-04-06T13:11:39.847Z,12.50
2023-04-06T13:14:08.229Z,12.88
2023-04-06T13:16:37.263Z,11.50
2023-04-06T13:19:05.728Z,11.30
2023-04-06T13:21:34.317Z,12.40
2023-04-06T13:24:02.626Z,14.07
2023-04-06T13:26:35.258Z,10.63
2023-04-06T13:29:03.764Z,15.72
2023-04-06T13:31:32.487Z,11.75
2023-04-06T13:34:00.981Z,13.15
2023-04-06T13:36:29.270Z,9.63
2023-04-06T13:38:57.503Z,10.88
2023-04-06T13:41:27.294Z,9.35
2023-04-06T13:43:55.952Z,18.17
2023-04-06T13:46:25.203Z,9.93
2023-04-06T13:48:53.865Z,12.13
2023-04-06T13:51:22.365Z,12.25
2023-04-06T13:53:52.427Z,8.65
2023-04-06T13:56:20.847Z,11.03
2023-04-06T13:58:49.119Z,8.40
2023-04-06T14:01:17.503Z,10.45
2023-04-06T14:03:48.805Z,6.78
2023-04-06T14:08:47.727Z,7.28
2023-04-06T14:11:17.170Z,9.70
2023-04-06T14:13:45.693Z,9.35
2023-04-06T14:16:14.272Z,9.88
2023-04-06T14:18:43.441Z,9.68
2023-04-06T14:21:11.888Z,8.95
2023-04-06T14:23:40.329Z,9.73
2023-04-06T14:26:09.912Z,8.55
2023-04-06T14:28:39.094Z,12.75
2023-04-06T14:31:17.056Z,8.73
2023-04-06T14:33:46.518Z,9.70
2023-04-06T14:36:15.623Z,10.28
2023-04-06T14:38:44.999Z,8.68
2023-04-06T14:41:19.841Z,12.18
2023-04-06T14:43:48.851Z,13.43
2023-04-06T14:46:17.746Z,6.50
2023-04-06T14:48:47.152Z,10.80
2023-04-06T14:51:15.545Z,9.83
2023-04-06T14:53:45.410Z,5.35
2023-04-06T14:56:13.819Z,9.05
2023-04-06T14:58:42.080Z,10.38
2023-04-06T15:01:10.441Z,7.97
2023-04-06T15:03:38.769Z,9.10
2023-04-06T15:06:08.578Z,9.68
2023-04-06T15:08:36.862Z,10.18
2023-04-06T15:11:05.484Z,11.10
2023-04-06T15:13:33.756Z,9.03
2023-04-06T15:16:02.287Z,12.35
2023-04-06T15:18:30.574Z,12.35
2023-04-06T15:20:58.867Z,7.95
2023-04-06T15:23:28.717Z,9.98
2023-04-06T15:25:58.502Z,12.47
2023-04-06T15:28:26.825Z,10.88
2023-04-06T15:30:55.494Z,12.05
2023-04-06T15:33:25.144Z,11.95
2023-04-06T15:35:55.520Z,7.80
2023-04-06T15:38:24.211Z,14.03
2023-04-06T15:40:52.795Z,15.30
2023-04-06T15:43:24.161Z,12.53
2023-04-06T15:45:54.100Z,14.95
2023-04-06T15:48:23.579Z,10.48
2023-04-06T15:50:51.857Z,15.80
2023-04-06T15:53:27.024Z,18.82
2023-04-06T15:55:59.907Z,17.25
2023-04-06T15:58:28.604Z,16.37
2023-04-06T16:00:57.402Z,9.20
2023-04-06T16:03:26.426Z,14.65
2023-04-06T16:06:08.252Z,18.98
2023-04-06T16:08:25.641Z,9.78
2023-04-06T16:10:54.525Z,16.12
2023-04-06T16:13:23.590Z,13.83
2023-04-06T16:15:52.353Z,13.88
2023-04-06T16:18:22.296Z,9.13
2023-04-06T16:21:10.058Z,17.15
2023-04-06T16:23:38.514Z,19.70
2023-04-06T16:26:11.270Z,20.85
2023-04-06T16:28:39.851Z,15.03
2023-04-06T16:31:08.483Z,15.58
2023-04-06T16:33:36.777Z,18.32
2023-04-06T16:36:05.588Z,15.48
2023-04-06T16:38:35.436Z,18.80
2023-04-06T16:41:03.732Z,18.70
2023-04-06T16:43:32.957Z,17.67
2023-04-06T16:46:01.276Z,21.52
2023-04-06T16:48:29.529Z,14.78
2023-04-06T16:50:57.811Z,16.65
2023-04-06T16:53:26.090Z,19.60
2023-04-06T16:55:54.498Z,11.83
2023-04-06T16:58:22.729Z,12.85
2023-04-06T17:00:51.525Z,23.25
2023-04-06T17:03:19.922Z,11.85
2023-04-06T17:05:48.354Z,16.48
2023-04-06T17:08:16.635Z,14.63
2023-04-06T17:11:02.492Z,18.23
2023-04-06T17:13:14.823Z,20.70
2023-04-06T17:15:43.276Z,18.12
2023-04-06T17:18:11.549Z,15.03
2023-04-06T17:20:39.788Z,11.38
2023-04-06T17:23:08.054Z,14.25
2023-04-06T17:25:36.823Z,12.82
2023-04-06T17:28:05.044Z,7.53
2023-04-06T17:30:34.264Z,8.55
2023-04-06T17:33:02.787Z,15.00
2023-04-06T17:35:31.303Z,10.68
2023-04-06T17:37:59.525Z,14.87
2023-04-06T17:40:27.828Z,16.45
2023-04-06T17:42:56.088Z,11.80
2023-04-06T17:45:29.192Z,11.28
2023-04-06T17:47:57.605Z,11.18
2023-04-06T17:50:25.990Z,12.90
2023-04-06T17:52:54.289Z,14.20
2023-04-06T17:55:22.836Z,8.93
2023-04-06T17:57:51.250Z,9.00
2023-04-06T18:00:38.836Z,16.00
2023-04-06T18:03:07.205Z,10.90
2023-04-06T18:05:35.631Z,4.70
2023-04-06T18:08:03.955Z,7.33
2023-04-06T18:10:32.310Z,6.40
2023-04-06T18:13:01.482Z,13.85
2023-04-06T18:15:31.202Z,17.55
2023-04-06T18:17:59.515Z,13.48
2023-04-06T18:20:27.824Z,16.75
2023-04-06T18:22:56.079Z,13.95
2023-04-06T18:25:25.190Z,16.10
2023-04-06T18:27:53.441Z,15.20
2023-04-06T18:30:21.783Z,16.02
2023-04-06T18:32:50.462Z,12.15
2023-04-06T18:35:18.816Z,12.88
2023-04-06T18:37:47.062Z,12.78
2023-04-06T18:40:19.788Z,13.10
2023-04-06T18:42:48.083Z,13.68
2023-04-06T18:45:16.406Z,11.25
2023-04-06T18:47:44.685Z,16.12
2023-04-06T18:50:12.998Z,11.30
2023-04-06T18:52:41.732Z,7.12
2023-04-06T18:55:10.166Z,13.35
2023-04-06T18:57:38.400Z,11.90
2023-04-06T19:00:07.329Z,12.25
2023-04-06T19:02:36.266Z,12.65
2023-04-06T19:05:04.889Z,12.63
2023-04-06T19:07:34.283Z,12.63
2023-04-06T19:10:02.622Z,10.93
2023-04-06T19:12:30.902Z,10.32
2023-04-06T19:14:59.147Z,13.35
2023-04-06T19:17:27.458Z,8.10
2023-04-06T19:19:57.541Z,8.30
2023-04-06T19:22:26.128Z,11.10
2023-04-06T19:24:54.496Z,14.65
2023-04-06T19:27:22.809Z,11.90
2023-04-06T19:29:51.074Z,13.30
2023-04-06T19:32:19.374Z,11.40
2023-04-06T19:34:47.716Z,9.28
2023-04-06T19:37:15.981Z,9.43
2023-04-06T19:39:44.262Z,8.40
2023-04-06T19:42:14.029Z,9.73
2023-04-06T19:44:42.363Z,6.53
2023-04-06T19:47:12.268Z,5.92
2023-04-06T19:49:40.620Z,5.17
2023-04-06T19:52:10.124Z,8.15
2023-04-06T19:54:39.810Z,10.32
2023-04-06T19:57:08.125Z,5.03
2023-04-06T19:59:36.481Z,8.05
2023-04-06T20:02:04.909Z,5.40
2023-04-06T20:04:33.183Z,5.87
2023-04-06T20:07:01.972Z,8.63
2023-04-06T20:09:30.418Z,8.08
2023-04-06T20:11:58.737Z,7.15
2023-04-06T20:14:27.061Z,7.90
2023-04-06T20:16:55.365Z,7.55
2023-04-06T20:19:23.930Z,7.10
2023-04-06T20:21:52.186Z,7.10
2023-04-06T20:24:20.703Z,8.78
2023-04-06T20:26:50.583Z,10.35
2023-04-06T20:29:18.920Z,8.80
2023-04-06T20:31:47.670Z,8.85
2023-04-06T20:34:16.438Z,8.08
2023-04-06T20:36:45.079Z,15.58
2023-04-06T20:39:14.990Z,8.50
2023-04-06T20:41:43.458Z,8.23
2023-04-06T20:44:11.711Z,9.23
2023-04-06T20:46:40.122Z,8.58
2023-04-06T20:49:08.467Z,6.47
2023-04-06T20:51:38.063Z,9.30
2023-04-06T20:54:06.706Z,8.40
2023-04-06T20:56:35.251Z,5.50
2023-04-06T20:59:05.376Z,5.60
2023-04-06T21:01:33.819Z,6.70
2023-04-06T21:04:04.149Z,5.90
2023-04-06T21:06:33.323Z,11.45
2023-04-06T21:09:01.914Z,7.45
2023-04-06T21:11:30.236Z,8.40
2023-04-06T21:13:58.604Z,3.47
2023-04-06T21:16:27.841Z,6.60
2023-04-06T21:18:56.081Z,6.70
2023-04-06T21:21:24.598Z,5.22
2023-04-06T21:23:52.920Z,7.83
2023-04-06T21:26:21.381Z,8.33
2023-04-06T21:28:49.768Z,10.38
2023-04-06T21:31:19.941Z,9.40
2023-04-06T21:33:48.965Z,7.33
2023-04-06T21:36:17.220Z,8.10
2023-04-06T21:38:45.794Z,8.80
2023-04-06T21:41:14.214Z,5.75
2023-04-06T21:43:42.475Z,9.28
2023-04-06T21:46:10.855Z,8.05
2023-04-06T21:48:39.111Z,11.45
2023-04-06T21:51:07.355Z,10.80
2023-04-06T21:53:35.610Z,8.85
2023-04-06T21:56:03.997Z,10.45
2023-04-06T21:58:32.271Z,9.10
2023-04-06T22:01:01.192Z,10.30
2023-04-06T22:03:29.683Z,9.68
2023-04-06T22:05:58.111Z,7.78
2023-04-06T22:08:33.834Z,10.20
2023-04-06T22:10:56.255Z,11.43
2023-04-06T22:13:28.010Z,9.18
2023-04-06T22:15:56.282Z,11.80
2023-04-06T22:18:24.529Z,14.47
2023-04-06T22:20:53.148Z,14.15
2023-04-06T22:23:21.456Z,13.13
2023-04-06T22:25:50.161Z,12.05
2023-04-06T22:28:18.414Z,12.70
2023-04-06T22:30:46.668Z,14.07
2023-04-06T22:33:15.067Z,11.05
2023-04-06T22:35:43.810Z,9.25
2023-04-06T22:38:12.112Z,12.75
2023-04-06T22:40:40.463Z,16.82
2023-04-06T22:43:08.849Z,15.20
2023-04-06T22:45:37.412Z,17.60
2023-04-06T22:48:05.876Z,16.15
2023-04-06T22:50:34.217Z,15.55
2023-04-06T22:53:02.558Z,16.97
2023-04-06T22:55:31.084Z,14.75
2023-04-06T22:57:59.457Z,14.53
2023-04-06T23:00:27.891Z,12.25
2023-04-06T23:02:56.291Z,12.98
2023-04-06T23:05:24.841Z,14.83
2023-04-06T23:07:53.429Z,14.43
2023-04-06T23:10:21.861Z,15.55
2023-04-06T23:12:50.282Z,15.55
2023-04-06T23:15:18.601Z,18.20
2023-04-06T23:17:47.130Z,18.10
2023-04-06T23:20:15.695Z,19.20
2023-04-06T23:22:44.002Z,18.27
2023-04-06T23:25:12.277Z,12.50
2023-04-06T23:27:40.547Z,23.55
2023-04-06T23:30:09.166Z,17.35
2023-04-06T23:32:37.942Z,20.52
2023-04-06T23:35:06.598Z,19.23
2023-04-06T23:37:35.033Z,23.92
2023-04-06T23:40:04.450Z,26.40
2023-04-06T23:42:32.805Z,24.20
2023-04-06T23:45:02.601Z,22.77
2023-04-06T23:47:31.224Z,22.00
2023-04-06T23:49:59.622Z,26.37
2023-04-06T23:52:29.586Z,27.65
2023-04-06T23:55:08.420Z,26.33
2023-04-06T23:57:36.758Z,22.05
